Wednesday, January 17, 2018, 7:15 PM EST
Back to Local

KPNE, N.e. Philadelphia Airport

Location: Philadelphia, PA, United States Lat: 40.083
Local Time: 7:15 PM EST ( 0:15 GMT) Lon: -75.017
Time Zone: US/Eastern Elev: 121 ft

Show me the last for .
Show Decoded

2018-01-17 18:54 METAR KPNE 172354Z 33011KT 10SM CLR M03/M11 A3025 RMK AO2 SLP245 T10331106 11011
                 21033 53000 =
2018-01-17 17:54 METAR KPNE 172254Z 32010KT 10SM CLR M03/M10 A3025 RMK AO2 SLP243 T10281100 =
2018-01-17 16:54 METAR KPNE 172154Z 31010KT 10SM CLR M03/M09 A3025 RMK AO2 SLP243 T10281094 =
2018-01-17 15:54 METAR KPNE 172054Z 32009KT 10SM FEW120 M03/M09 A3025 RMK AO2 SLP244 T10281089
                 58006 =
2018-01-17 14:54 METAR KPNE 171954Z 30010KT 9SM SCT110 M02/M08 A3026 RMK AO2 SLP248 T10221078 =
2018-01-17 13:54 METAR KPNE 171854Z 31010KT 9SM FEW045 M02/M07 A3026 RMK AO2 SLP247 T10171072 =
2018-01-17 12:54 METAR KPNE 171754Z 33012G19KT 8SM OVC044 M02/M06 A3027 RMK AO2 SLP250 60002
                 T10171056 10011 21017 58022 =
2018-01-17 11:54 METAR KPNE 171654Z 31010KT 9SM OVC042 M02/M06 A3031 RMK AO2 SNE01 SLP263 P0000
                 T10171056 =
2018-01-17 10:54 METAR KPNE 171554Z 32012G17KT 3SM -SN FEW012 OVC030 M01/M04 A3033 RMK AO2 SLP271
                 P0000 T10111044 =
2018-01-17 10:49 METAR KPNE 171549Z 30013KT 2 1/2SM -SN FEW011 BKN028 OVC037 M01/M04 A3033 RMK
                 AO2 P0000 =
2018-01-17 09:54 METAR KPNE 171454Z 32008KT 1SM -SN BR SCT009 OVC023 M01/M03 A3033 RMK AO2 SLP272
                 P0001 60002 T10111033 53006 RVRNO =
2018-01-17 09:46 METAR KPNE 171446Z 32009KT 1SM -SN BKN009 OVC025 M01/M03 A3033 RMK AO2 P0001
                 T10061033 RVRNO =
2018-01-17 09:34 METAR KPNE 171434Z 29009KT 3/4SM -SN BR SCT009 BKN013 OVC025 00/M02 A3033 RMK
                 AO2 P0000 T00001022 RVRNO =
2018-01-17 09:25 METAR KPNE 171425Z 32009KT 1 1/4SM -SN FEW011 BKN025 OVC035 00/M03 A3033 RMK AO2
                 P0000 T00001028 =
2018-01-17 09:12 METAR KPNE 171412Z 31010KT 3/4SM -SN BR FEW009 BKN023 OVC034 00/M02 A3032 RMK
                 AO2 P0000 T00001022 RVRNO =
2018-01-17 08:54 METAR KPNE 171354Z 32007G14KT 1 1/4SM -SN BR FEW011 BKN027 OVC034 00/M02 A3032
                 RMK AO2 SLP267 P0000 T00001022 =
2018-01-17 08:50 METAR KPNE 171350Z 33009G14KT 1 1/4SM -SN BR FEW011 SCT027 OVC034 01/M02 A3032
                 RMK AO2 P0000 =
2018-01-17 08:18 METAR KPNE 171318Z 33011KT 1SM -SN FEW010 BKN025 OVC033 01/M02 A3031 RMK AO2
                 P0000 T00061022 RVRNO =
2018-01-17 07:54 METAR KPNE 171254Z 33011KT 3/4SM -SN BR FEW010 BKN023 OVC032 01/M02 A3031 RMK
                 AO2 SLP266 P0001 T00061017 RVRNO =
2018-01-17 07:43 METAR KPNE 171243Z 32011KT 3/4SM -SN BR SCT010 BKN027 OVC032 01/M01 A3031 RMK
                 AO2 P0000 T00111011 RVRNO =
2018-01-17 07:41 METAR KPNE 171241Z 32011G19KT 1SM -SN BR SCT010 OVC032 01/M01 A3031 RMK AO2
                 P0000 T00111011 RVRNO =
2018-01-17 07:17 METAR KPNE 171217Z 32010KT 1 1/2SM -SN BR BKN010 OVC031 01/M01 A3030 RMK AO2 CIG
                 007V012 P0000 T00111006 =
2018-01-17 06:54 METAR KPNE 171154Z 32008KT 1 3/4SM -SN BR BKN009 OVC029 01/M01 A3030 RMK AO2 CIG
                 005V012 SLP261 P0001 60007 70007 I6000 T00111006 10028 20011 53006 =
2018-01-17 06:28 METAR KPNE 171128Z 32006KT 1SM -SN BR BKN008 BKN017 OVC027 02/00 A3030 RMK AO2
                 P0000 T00170000 RVRNO =
2018-01-17 05:54 METAR KPNE 171054Z 33006KT 1 1/4SM -SN BR SCT006 OVC024 02/00 A3029 RMK AO2
                 SLP258 P0002 T00170000 =
2018-01-17 05:44 METAR KPNE 171044Z AUTO 33006KT 1 1/2SM -SN BR BKN005 OVC024 02/00 A3029 RMK AO2
                 P0001 T00170000 =
2018-01-17 05:08 METAR KPNE 171008Z AUTO 34007KT 1 3/4SM -SN BR FEW005 OVC021 02/00 A3028 RMK AO2
                 P0000 T00170000 =
2018-01-17 05:01 METAR KPNE 171001Z AUTO 33008KT 2SM -SN BR FEW005 OVC021 02/00 A3028 RMK AO2
                 P0000 T00170000 =
2018-01-17 04:54 METAR KPNE 170954Z AUTO 33007KT 1 3/4SM -SN BR FEW005 OVC019 02/00 A3028 RMK AO2
                 RAE19SNB19 SLP255 P0002 T00170000 =
2018-01-17 04:51 METAR KPNE 170951Z AUTO 33006KT 1 3/4SM -SN BR FEW005 OVC019 02/00 A3028 RMK AO2
                 RAE19SNB19 P0002 =
2018-01-17 04:43 METAR KPNE 170943Z AUTO 33007KT 2SM -SN BR FEW006 OVC019 02/00 A3028 RMK AO2
                 RAE19SNB19 P0002 T00170000 =
2018-01-17 04:20 METAR KPNE 170920Z AUTO 33006KT 4SM -SN BR SCT006 OVC018 02/00 A3028 RMK AO2
                 RAE19SNB19 P0002 T00170000 =
2018-01-17 03:54 METAR KPNE 170854Z AUTO 33005KT 4SM -RA BR BKN006 OVC014 02/01 A3028 RMK AO2
                 UPE02B22E29RAB02 SLP255 P0002 60002 I1000 I3000 T00220006 56010 =
2018-01-17 03:44 METAR KPNE 170844Z AUTO 32006KT 4SM -RA BR SCT006 OVC014 02/01 A3029 RMK AO2
                 UPE02B22E29RAB02 P0002 T00220011 =
2018-01-17 02:54 METAR KPNE 170754Z AUTO 35006KT 4SM UP BR OVC012 02/01 A3029 RMK AO2
                 UPB0659E09B35 SLP258 P0000 T00220006 =
2018-01-17 01:54 METAR KPNE 170654Z AUTO 34005KT 6SM BR OVC010 03/01 A3030 RMK AO2 SLP262
                 T00280006 =
2018-01-17 00:54 METAR KPNE 170554Z AUTO 32007KT 10SM OVC011 03/00 A3031 RMK AO2 SLP265 T00280000
                 10044 20028 56016 =
2018-01-17 00:39 METAR KPNE 170539Z AUTO 32004KT 10SM OVC013 03/00 A3032 RMK AO2 T00330000 =
2018-01-16 23:54 METAR KPNE 170454Z AUTO 02004KT 10SM BKN018 OVC028 03/00 A3032 RMK AO2 SLP269
                 T00330000 400721017 =
2018-01-16 23:17 METAR KPNE 170417Z AUTO 02004KT 10SM BKN016 BKN026 OVC044 03/00 A3034 RMK AO2
                 T00330000 =
2018-01-16 22:54 METAR KPNE 170354Z AUTO 03003KT 10SM FEW024 SCT029 BKN038 03/00 A3034 RMK AO2
                 SLP274 T00330000 =
2018-01-16 22:32 METAR KPNE 170332Z 01004KT 10SM SCT026 BKN033 OVC042 04/00 A3035 RMK AO2
                 T00390000 =
2018-01-16 21:54 METAR KPNE 170254Z 02004KT 10SM BKN028 BKN035 OVC042 04/M01 A3036 RMK AO2 SLP282
                 T00391006 56010 =
2018-01-16 21:18 METAR KPNE 170218Z 08004KT 10SM SCT025 SCT030 BKN039 03/M01 A3036 RMK AO2
                 T00331006 =
2018-01-16 20:54 METAR KPNE 170154Z 00000KT 10SM BKN025 OVC034 04/M01 A3037 RMK AO2 SLP286
                 T00391006 =
2018-01-16 19:54 METAR KPNE 170054Z 12004KT 10SM FEW028 SCT036 03/M01 A3038 RMK AO2 SLP287
                 T00331011 =
2018-01-16 19:47 METAR KPNE 170047Z 12004KT 10SM SCT028 03/M01 A3038 RMK AO2 T00331011 =

Support USWX by starting your Amazon purchase here.